createdAt,value
2018-10-15T00:02:22.545Z,6.30
2018-10-15T00:04:51.439Z,7.87
2018-10-15T00:07:21.227Z,6.43
2018-10-15T00:09:49.498Z,6.10
2018-10-15T00:12:17.317Z,7.90
2018-10-15T00:14:45.475Z,6.50
2018-10-15T00:17:14.149Z,6.20
2018-10-15T00:19:42.037Z,7.37
2018-10-15T00:22:10.703Z,7.40
2018-10-15T00:24:39.082Z,7.23
2018-10-15T00:27:07.269Z,6.90
2018-10-15T00:29:35.136Z,7.67
2018-10-15T00:32:03.484Z,6.40
2018-10-15T00:34:31.657Z,7.40
2018-10-15T00:36:59.550Z,6.73
2018-10-15T00:39:27.700Z,7.60
2018-10-15T00:41:55.640Z,7.57
2018-10-15T00:44:23.474Z,7.63
2018-10-15T00:46:51.371Z,7.67
2018-10-15T00:49:19.243Z,7.33
2018-10-15T00:51:47.113Z,7.97
2018-10-15T00:54:14.983Z,7.60
2018-10-15T00:56:42.845Z,7.20
2018-10-15T00:59:10.707Z,8.23
2018-10-15T01:01:38.585Z,8.83
2018-10-15T01:04:06.441Z,8.23
2018-10-15T01:06:34.332Z,9.07
2018-10-15T01:09:02.272Z,8.67
2018-10-15T01:11:30.093Z,7.87
2018-10-15T01:13:57.929Z,8.17
2018-10-15T01:16:25.759Z,8.17
2018-10-15T01:18:53.836Z,8.57
2018-10-15T01:21:21.686Z,9.07
2018-10-15T01:23:49.509Z,8.43
2018-10-15T01:26:17.353Z,8.70
2018-10-15T01:28:45.266Z,8.53
2018-10-15T01:31:13.082Z,8.80
2018-10-15T01:33:41.306Z,8.67
2018-10-15T01:36:09.117Z,8.57
2018-10-15T01:38:37.244Z,8.67
2018-10-15T01:41:05.139Z,8.50
2018-10-15T01:43:32.985Z,7.90
2018-10-15T01:46:00.837Z,8.83
2018-10-15T01:48:28.714Z,8.53
2018-10-15T01:50:56.576Z,9.37
2018-10-15T01:53:24.423Z,8.87
2018-10-15T01:55:52.254Z,8.03
2018-10-15T01:58:20.096Z,8.43
2018-10-15T02:00:47.944Z,8.40
2018-10-15T02:03:15.835Z,9.30
2018-10-15T02:05:43.900Z,8.07
2018-10-15T02:08:11.752Z,8.83
2018-10-15T02:10:39.581Z,9.03
2018-10-15T02:13:07.412Z,9.60
2018-10-15T02:15:35.294Z,9.10
2018-10-15T02:18:03.190Z,9.67
2018-10-15T02:20:31.261Z,9.73
2018-10-15T02:22:59.465Z,9.07
2018-10-15T02:25:27.297Z,8.20
2018-10-15T02:27:55.158Z,10.17
2018-10-15T02:30:23.041Z,9.13
2018-10-15T02:32:50.923Z,9.00
2018-10-15T02:35:18.801Z,9.47
2018-10-15T02:37:46.650Z,9.53
2018-10-15T02:40:14.585Z,8.80
2018-10-15T02:42:42.472Z,9.70
2018-10-15T02:45:10.559Z,9.83
2018-10-15T02:47:38.857Z,10.47
2018-10-15T02:50:08.345Z,9.87
2018-10-15T02:52:36.193Z,8.80
2018-10-15T02:55:05.011Z,11.07
2018-10-15T02:57:32.899Z,9.97
2018-10-15T03:00:00.821Z,10.27
2018-10-15T03:02:30.232Z,9.90
2018-10-15T03:04:58.108Z,10.40
2018-10-15T03:07:26.806Z,11.60
2018-10-15T03:09:55.050Z,9.70
2018-10-15T03:12:23.226Z,10.70
2018-10-15T03:14:51.068Z,11.27
2018-10-15T03:17:19.568Z,10.23
2018-10-15T03:19:47.377Z,9.60
2018-10-15T03:22:15.581Z,10.00
2018-10-15T03:24:43.702Z,10.63
2018-10-15T03:27:11.628Z,9.87
2018-10-15T03:29:39.546Z,9.00
2018-10-15T03:32:07.420Z,10.83
2018-10-15T03:34:35.327Z,9.93
2018-10-15T03:37:03.215Z,10.33
2018-10-15T03:39:31.082Z,11.20
2018-10-15T03:41:58.923Z,11.50
2018-10-15T03:44:27.039Z,10.80
2018-10-15T03:46:54.896Z,10.80
2018-10-15T03:49:22.756Z,11.27
2018-10-15T03:51:50.636Z,11.03
2018-10-15T03:54:18.796Z,11.80
2018-10-15T03:56:46.894Z,11.30
2018-10-15T03:59:14.728Z,10.90
2018-10-15T04:01:42.595Z,10.57
2018-10-15T04:04:10.440Z,10.73
2018-10-15T04:06:38.314Z,11.17
2018-10-15T04:09:09.005Z,9.77
2018-10-15T04:11:36.861Z,11.33
2018-10-15T04:14:06.030Z,11.57
2018-10-15T04:16:34.139Z,12.63
2018-10-15T04:19:03.534Z,12.33
2018-10-15T04:21:32.498Z,10.73
2018-10-15T04:24:00.639Z,11.30
2018-10-15T04:26:29.484Z,11.90
2018-10-15T04:28:57.676Z,10.60
2018-10-15T04:31:27.165Z,12.07
2018-10-15T04:33:55.543Z,12.47
2018-10-15T04:36:23.556Z,11.80
2018-10-15T04:38:52.102Z,11.93
2018-10-15T04:41:21.120Z,11.43
2018-10-15T04:43:49.564Z,13.93
2018-10-15T04:46:18.255Z,11.97
2018-10-15T04:48:46.680Z,12.47
2018-10-15T04:51:15.590Z,11.53
2018-10-15T04:53:43.548Z,11.50
2018-10-15T04:56:11.665Z,12.43
2018-10-15T04:58:40.364Z,12.10
2018-10-15T05:01:09.205Z,12.90
2018-10-15T05:03:38.525Z,12.20
2018-10-15T05:06:07.065Z,11.90
2018-10-15T05:08:35.102Z,12.17
2018-10-15T05:11:03.576Z,11.30
2018-10-15T05:13:32.877Z,13.27
2018-10-15T05:16:01.974Z,11.97
2018-10-15T05:18:30.667Z,12.93
2018-10-15T05:20:59.711Z,12.03
2018-10-15T05:23:28.243Z,11.13
2018-10-15T05:25:57.847Z,12.30
2018-10-15T05:28:26.244Z,12.20
2018-10-15T05:30:54.813Z,12.20
2018-10-15T05:33:23.153Z,12.07
2018-10-15T05:35:51.209Z,12.00
2018-10-15T05:38:19.446Z,12.67
2018-10-15T05:40:48.712Z,12.43
2018-10-15T05:43:16.663Z,12.77
2018-10-15T05:45:44.629Z,12.23
2018-10-15T05:48:14.213Z,11.20
2018-10-15T05:50:45.632Z,12.17
2018-10-15T05:53:16.367Z,13.67
2018-10-15T05:55:45.534Z,12.07
2018-10-15T05:58:15.198Z,12.03
2018-10-15T06:00:45.597Z,12.07
2018-10-15T06:03:13.767Z,11.03
2018-10-15T06:05:41.941Z,11.53
2018-10-15T06:08:10.096Z,12.80
2018-10-15T06:13:15.301Z,11.43
2018-10-15T06:15:43.438Z,13.00
2018-10-15T06:18:11.351Z,12.17
2018-10-15T06:20:39.489Z,12.00
2018-10-15T06:23:07.360Z,12.17
2018-10-15T06:25:35.239Z,13.77
2018-10-15T06:28:03.509Z,12.37
2018-10-15T06:30:31.400Z,11.90
2018-10-15T06:32:59.260Z,12.50
2018-10-15T06:35:27.145Z,13.23
2018-10-15T06:37:55.032Z,13.70
2018-10-15T06:40:22.923Z,12.80
2018-10-15T06:42:50.762Z,14.40
2018-10-15T06:45:18.659Z,13.20
2018-10-15T06:47:46.566Z,12.30
2018-10-15T06:50:14.438Z,12.73
2018-10-15T06:52:42.316Z,13.40
2018-10-15T06:55:10.459Z,12.50
2018-10-15T06:57:38.858Z,12.83
2018-10-15T07:00:08.512Z,12.13
2018-10-15T07:02:36.772Z,12.17
2018-10-15T07:05:05.027Z,11.83
2018-10-15T07:07:32.996Z,13.20
2018-10-15T07:10:00.878Z,13.03
2018-10-15T07:12:28.743Z,11.60
2018-10-15T07:14:56.589Z,12.00
2018-10-15T07:17:24.444Z,11.47
2018-10-15T07:19:52.300Z,12.10
2018-10-15T07:22:20.245Z,11.77
2018-10-15T07:25:05.728Z,12.90
2018-10-15T07:27:33.632Z,11.83
2018-10-15T07:30:01.927Z,11.80
2018-10-15T07:32:30.131Z,12.83
2018-10-15T07:34:58.018Z,12.07
2018-10-15T07:37:26.182Z,11.70
2018-10-15T07:39:54.022Z,11.47
2018-10-15T07:42:21.981Z,13.00
2018-10-15T07:44:49.780Z,11.73
2018-10-15T07:47:17.670Z,12.03
2018-10-15T07:49:45.550Z,11.53
2018-10-15T07:52:13.467Z,11.30
2018-10-15T07:54:41.850Z,11.77
2018-10-15T07:57:10.051Z,11.10
2018-10-15T07:59:38.313Z,12.10
2018-10-15T08:02:06.387Z,11.23
2018-10-15T08:04:34.250Z,12.40
2018-10-15T08:07:02.444Z,10.63
2018-10-15T08:09:30.353Z,11.57
2018-10-15T08:11:58.272Z,12.13
2018-10-15T08:14:26.153Z,11.20
2018-10-15T08:16:54.030Z,12.20
2018-10-15T08:19:21.909Z,10.90
2018-10-15T08:21:49.818Z,10.87
2018-10-15T08:24:17.648Z,10.87
2018-10-15T08:26:45.561Z,10.87
2018-10-15T08:29:13.387Z,11.47
2018-10-15T08:31:41.280Z,10.50
2018-10-15T08:34:09.114Z,11.40
2018-10-15T08:36:36.960Z,10.47
2018-10-15T08:39:07.659Z,10.47
2018-10-15T08:41:35.627Z,9.83
2018-10-15T08:44:03.867Z,10.03
2018-10-15T08:46:31.963Z,10.87
2018-10-15T08:48:59.833Z,11.17
2018-10-15T08:51:27.735Z,11.00
2018-10-15T08:53:55.767Z,9.53
2018-10-15T08:56:23.664Z,10.30
2018-10-15T08:58:51.565Z,10.27
2018-10-15T09:01:19.798Z,11.00
2018-10-15T09:03:47.724Z,10.03
2018-10-15T09:06:16.944Z,9.90
2018-10-15T09:08:44.976Z,11.20
2018-10-15T09:11:12.744Z,9.03
2018-10-15T09:13:40.880Z,9.20
2018-10-15T09:16:08.781Z,10.60
2018-10-15T09:18:37.292Z,9.70
2018-10-15T09:21:05.323Z,10.30
2018-10-15T09:23:33.040Z,9.93
2018-10-15T09:26:01.028Z,9.80
2018-10-15T09:28:28.741Z,8.57
2018-10-15T09:30:56.658Z,10.47
2018-10-15T09:33:24.523Z,9.50
2018-10-15T09:35:52.725Z,9.00
2018-10-15T09:38:20.632Z,8.30
2018-10-15T09:40:48.487Z,8.37
2018-10-15T09:43:16.329Z,9.17
2018-10-15T09:45:44.281Z,8.07
2018-10-15T09:48:12.130Z,9.10
2018-10-15T09:50:40.047Z,8.00
2018-10-15T09:53:08.251Z,7.80
2018-10-15T09:55:36.123Z,8.27
2018-10-15T09:58:04.094Z,8.40
2018-10-15T10:00:37.491Z,7.63
2018-10-15T10:03:05.608Z,8.70
2018-10-15T10:05:33.441Z,9.70
2018-10-15T10:08:01.336Z,7.43
2018-10-15T10:12:59.683Z,9.70
2018-10-15T10:15:27.800Z,8.87
2018-10-15T10:17:56.040Z,9.20
2018-10-15T10:20:23.689Z,7.77
2018-10-15T10:22:51.576Z,8.27
2018-10-15T10:25:20.280Z,9.70
2018-10-15T10:27:48.569Z,9.10
2018-10-15T10:30:16.885Z,7.87
2018-10-15T10:32:45.181Z,7.43
2018-10-15T10:35:31.558Z,7.60
2018-10-15T10:37:59.571Z,8.80
2018-10-15T10:40:27.830Z,8.37
2018-10-15T10:42:55.643Z,8.47
2018-10-15T10:45:23.604Z,8.10
2018-10-15T10:47:51.470Z,8.20
2018-10-15T10:50:19.313Z,8.40
2018-10-15T10:52:47.156Z,7.60
2018-10-15T10:55:15.168Z,7.80
2018-10-15T10:57:43.017Z,7.60
2018-10-15T11:00:10.908Z,8.27
2018-10-15T11:02:38.842Z,7.90
2018-10-15T11:05:07.859Z,7.27
2018-10-15T11:07:35.736Z,8.00
2018-10-15T11:10:03.813Z,7.90
2018-10-15T11:12:31.990Z,7.03
2018-10-15T11:14:59.854Z,7.80
2018-10-15T11:17:27.763Z,7.27
2018-10-15T11:19:55.661Z,8.23
2018-10-15T11:22:23.584Z,8.00
2018-10-15T11:24:51.452Z,7.50
2018-10-15T11:27:19.284Z,6.80
2018-10-15T11:29:47.955Z,7.87
2018-10-15T11:32:15.824Z,7.90
2018-10-15T11:34:43.865Z,7.40
2018-10-15T11:37:12.244Z,7.90
2018-10-15T11:46:37.352Z,8.13
2018-10-15T11:49:05.365Z,8.43
2018-10-15T11:51:33.313Z,7.83
2018-10-15T11:54:01.234Z,8.20
2018-10-15T11:56:29.714Z,7.90
2018-10-15T11:58:57.588Z,8.60
2018-10-15T12:01:25.684Z,8.33
2018-10-15T12:03:53.520Z,9.07
2018-10-15T12:06:21.704Z,8.40
2018-10-15T12:08:49.887Z,7.43
2018-10-15T12:11:18.263Z,8.30
2018-10-15T12:13:46.121Z,7.40
2018-10-15T12:16:14.099Z,8.00
2018-10-15T12:18:42.400Z,8.47
2018-10-15T12:21:10.329Z,7.80
2018-10-15T12:23:38.361Z,8.67
2018-10-15T12:26:06.389Z,8.70
2018-10-15T12:28:34.356Z,8.37
2018-10-15T12:31:02.544Z,8.30
2018-10-15T12:33:30.420Z,8.77
2018-10-15T12:35:58.362Z,8.20
2018-10-15T12:38:26.193Z,8.70
2018-10-15T12:40:54.188Z,7.90
2018-10-15T12:43:22.124Z,8.73
2018-10-15T12:45:50.760Z,8.33
2018-10-15T12:48:19.167Z,7.90
2018-10-15T12:50:47.039Z,7.97
2018-10-15T12:53:16.032Z,7.57
2018-10-15T12:55:43.833Z,8.57
2018-10-15T12:58:11.722Z,8.90
2018-10-15T13:00:39.648Z,8.50
2018-10-15T13:03:07.518Z,8.40
2018-10-15T13:05:35.437Z,8.63
2018-10-15T13:08:03.427Z,8.17
2018-10-15T13:10:31.404Z,9.27
2018-10-15T13:12:59.254Z,9.47
2018-10-15T13:15:27.104Z,10.00
2018-10-15T13:17:55.676Z,9.57
2018-10-15T13:20:24.452Z,8.43
2018-10-15T13:22:52.371Z,8.97
2018-10-15T13:25:20.255Z,9.03
2018-10-15T13:27:48.149Z,9.67
2018-10-15T13:30:16.118Z,8.67
2018-10-15T13:32:44.656Z,9.10
2018-10-15T13:35:13.705Z,9.47
2018-10-15T13:37:42.425Z,9.20
2018-10-15T13:40:10.698Z,9.27
2018-10-15T13:42:38.790Z,8.60
2018-10-15T13:45:09.392Z,8.50
2018-10-15T13:47:38.095Z,9.07
2018-10-15T13:50:07.213Z,9.97
2018-10-15T13:52:35.106Z,9.37
2018-10-15T13:55:03.090Z,9.27
2018-10-15T13:57:30.959Z,8.87
2018-10-15T14:00:03.408Z,8.53
2018-10-15T14:02:31.420Z,10.00
2018-10-15T14:04:59.353Z,9.00
2018-10-15T14:07:27.564Z,9.27
2018-10-15T14:09:56.370Z,8.50
2018-10-15T14:12:28.828Z,9.90
2018-10-15T14:14:57.610Z,9.13
2018-10-15T14:17:26.011Z,9.43
2018-10-15T14:19:54.988Z,9.03
2018-10-15T14:22:23.529Z,9.03
2018-10-15T14:24:52.472Z,9.03
2018-10-15T14:27:21.380Z,9.93
2018-10-15T14:29:49.837Z,9.43
2018-10-15T14:32:18.119Z,9.70
2018-10-15T14:34:48.144Z,9.20
2018-10-15T14:37:17.857Z,8.60
2018-10-15T14:39:46.688Z,8.67
2018-10-15T14:42:16.106Z,8.80
2018-10-15T14:44:45.632Z,9.63
2018-10-15T14:47:14.079Z,8.23
2018-10-15T14:49:44.039Z,9.30
2018-10-15T14:52:13.341Z,8.77
2018-10-15T14:54:42.438Z,8.97
2018-10-15T14:57:11.710Z,9.43
2018-10-15T14:59:40.214Z,8.90
2018-10-15T15:02:08.506Z,9.10
2018-10-15T15:04:38.154Z,8.33
2018-10-15T15:07:06.938Z,8.80
2018-10-15T15:09:48.379Z,8.73
2018-10-15T15:12:29.144Z,8.53
2018-10-15T15:14:57.833Z,9.10
2018-10-15T15:17:27.592Z,8.63
2018-10-15T15:19:55.975Z,7.50
2018-10-15T15:22:25.426Z,15.23
2018-10-15T15:24:54.268Z,9.33
2018-10-15T15:27:23.006Z,8.73
2018-10-15T15:29:53.273Z,9.03
2018-10-15T15:32:23.540Z,9.43
2018-10-15T15:34:52.359Z,8.60
2018-10-15T15:37:20.650Z,8.93
2018-10-15T15:39:49.912Z,8.93
2018-10-15T15:42:18.598Z,9.57
2018-10-15T15:44:47.181Z,8.53
2018-10-15T15:47:16.177Z,8.80
2018-10-15T15:49:47.213Z,9.97
2018-10-15T15:52:15.864Z,12.33
2018-10-15T15:54:45.101Z,10.17
2018-10-15T15:57:14.245Z,9.03
2018-10-15T15:59:43.916Z,9.07
2018-10-15T16:02:16.075Z,9.90
2018-10-15T16:04:47.639Z,8.60
2018-10-15T16:07:17.163Z,8.40
2018-10-15T16:09:46.234Z,10.17
2018-10-15T16:12:16.262Z,8.67
2018-10-15T16:14:45.805Z,9.70
2018-10-15T16:17:16.346Z,9.97
2018-10-15T16:19:49.602Z,9.73
2018-10-15T16:22:26.754Z,10.03
2018-10-15T16:24:56.573Z,9.50
2018-10-15T16:27:25.359Z,9.97
2018-10-15T16:29:53.743Z,9.53
2018-10-15T16:32:24.579Z,9.63
2018-10-15T16:34:56.533Z,9.23
2018-10-15T16:37:27.066Z,9.67
2018-10-15T16:39:56.143Z,10.37
2018-10-15T16:42:30.888Z,9.67
2018-10-15T16:44:59.474Z,10.17
2018-10-15T16:47:28.581Z,10.03
2018-10-15T16:49:57.267Z,9.30
2018-10-15T16:52:26.372Z,9.90
2018-10-15T16:54:55.135Z,9.60
2018-10-15T16:57:23.957Z,10.87
2018-10-15T16:59:52.089Z,9.70
2018-10-15T17:02:20.231Z,9.87
2018-10-15T17:04:49.109Z,9.93
2018-10-15T17:07:17.440Z,9.87
2018-10-15T17:09:46.641Z,10.20
2018-10-15T17:12:15.460Z,10.13
2018-10-15T17:14:44.144Z,9.53
2018-10-15T17:17:12.861Z,12.10
2018-10-15T17:19:40.871Z,11.70
2018-10-15T17:22:08.876Z,10.50
2018-10-15T17:24:40.420Z,9.90
2018-10-15T17:27:09.190Z,10.60
2018-10-15T17:29:37.589Z,9.97
2018-10-15T17:32:06.765Z,10.80
2018-10-15T17:34:35.556Z,10.40
2018-10-15T17:37:03.972Z,10.90
2018-10-15T17:39:31.934Z,10.27
2018-10-15T17:42:00.173Z,10.13
2018-10-15T17:44:28.563Z,10.33
2018-10-15T17:46:58.374Z,10.10
2018-10-15T17:49:29.212Z,10.80
2018-10-15T17:51:57.897Z,11.50
2018-10-15T17:54:26.582Z,11.37
2018-10-15T17:56:55.174Z,10.33
2018-10-15T17:59:23.172Z,11.33
2018-10-15T18:01:52.346Z,9.63
2018-10-15T18:04:23.276Z,10.47
2018-10-15T18:06:52.394Z,9.60
2018-10-15T18:09:23.652Z,11.77
2018-10-15T18:11:55.914Z,10.63
2018-10-15T18:14:26.621Z,10.47
2018-10-15T18:16:55.959Z,10.83
2018-10-15T18:19:25.098Z,10.17
2018-10-15T18:21:54.761Z,10.60
2018-10-15T18:24:24.022Z,10.80
2018-10-15T18:26:53.492Z,10.60
2018-10-15T18:29:22.108Z,10.50
2018-10-15T18:31:50.078Z,10.00
2018-10-15T18:34:19.585Z,11.10
2018-10-15T18:36:48.776Z,9.33
2018-10-15T18:39:18.082Z,10.13
2018-10-15T18:41:47.376Z,11.03
2018-10-15T18:44:15.672Z,10.80
2018-10-15T18:46:44.483Z,10.10
2018-10-15T18:49:13.947Z,11.33
2018-10-15T18:51:42.945Z,11.00
2018-10-15T18:54:11.501Z,10.33
2018-10-15T18:56:39.675Z,11.03
2018-10-15T18:59:08.047Z,11.23
2018-10-15T19:01:36.689Z,10.60
2018-10-15T19:04:04.901Z,12.80
2018-10-15T19:09:12.457Z,11.20
2018-10-15T19:11:42.489Z,10.37
2018-10-15T19:14:12.828Z,10.60
2018-10-15T19:16:43.632Z,11.47
2018-10-15T19:19:13.861Z,11.40
2018-10-15T19:21:43.432Z,11.43
2018-10-15T19:24:13.370Z,11.40
2018-10-15T19:26:42.368Z,10.40
2018-10-15T19:29:11.154Z,11.60
2018-10-15T19:31:39.359Z,11.00
2018-10-15T19:34:08.333Z,10.70
2018-10-15T19:36:38.415Z,10.00
2018-10-15T19:39:09.598Z,11.00
2018-10-15T19:41:38.455Z,11.90
2018-10-15T19:44:07.331Z,9.70
2018-10-15T19:46:36.535Z,11.00
2018-10-15T19:49:07.395Z,11.80
2018-10-15T19:51:37.631Z,10.50
2018-10-15T19:54:07.749Z,11.00
2018-10-15T19:56:36.670Z,11.10
2018-10-15T19:59:05.853Z,10.33
2018-10-15T20:01:34.717Z,10.40
2018-10-15T20:04:03.291Z,10.23
2018-10-15T20:06:33.741Z,10.40
2018-10-15T20:09:02.471Z,10.40
2018-10-15T20:11:32.237Z,10.40
2018-10-15T20:14:00.157Z,9.90
2018-10-15T20:16:28.489Z,10.70
2018-10-15T20:18:57.681Z,12.37
2018-10-15T20:21:26.944Z,9.43
2018-10-15T20:23:56.067Z,11.40
2018-10-15T20:26:25.191Z,10.13
2018-10-15T20:28:54.119Z,10.67
2018-10-15T20:31:22.733Z,9.97
2018-10-15T20:33:52.047Z,10.30
2018-10-15T20:36:21.826Z,11.50
2018-10-15T20:38:50.462Z,9.60
2018-10-15T20:41:19.869Z,10.17
2018-10-15T20:43:50.060Z,10.50
2018-10-15T20:46:20.400Z,10.10
2018-10-15T20:48:48.861Z,11.10
2018-10-15T20:51:17.250Z,9.67
2018-10-15T20:53:45.971Z,10.93
2018-10-15T20:56:15.343Z,11.17
2018-10-15T20:58:43.684Z,12.00
2018-10-15T21:01:13.939Z,10.93
2018-10-15T21:03:43.574Z,11.30
2018-10-15T21:06:13.104Z,11.80
2018-10-15T21:08:41.946Z,9.83
2018-10-15T21:11:09.889Z,11.20
2018-10-15T21:13:38.342Z,10.03
2018-10-15T21:16:06.767Z,10.80
2018-10-15T21:18:34.650Z,11.30
2018-10-15T21:21:02.695Z,10.47
2018-10-15T21:23:30.687Z,10.37
2018-10-15T21:25:58.597Z,10.40
2018-10-15T21:28:26.819Z,9.60
2018-10-15T21:30:54.695Z,10.40
2018-10-15T21:33:23.689Z,11.23
2018-10-15T21:35:52.238Z,10.67
2018-10-15T21:38:20.186Z,10.97
2018-10-15T21:40:48.052Z,10.83
2018-10-15T21:43:15.916Z,11.10
2018-10-15T21:45:44.675Z,11.03
2018-10-15T21:48:12.476Z,11.10
2018-10-15T21:50:40.411Z,12.27
2018-10-15T21:53:08.277Z,10.90
2018-10-15T21:55:36.123Z,10.70
2018-10-15T21:58:04.754Z,11.27
2018-10-15T22:00:32.651Z,11.50
2018-10-15T22:03:00.490Z,10.13
2018-10-15T22:05:28.434Z,10.17
2018-10-15T22:07:56.268Z,10.33
2018-10-15T22:10:30.954Z,11.00
2018-10-15T22:12:59.168Z,10.50
2018-10-15T22:15:27.068Z,11.00
2018-10-15T22:17:54.945Z,11.27
2018-10-15T22:20:22.796Z,11.20
2018-10-15T22:22:50.637Z,12.07
2018-10-15T22:25:18.484Z,11.57
2018-10-15T22:27:46.410Z,10.60
2018-10-15T22:30:14.324Z,10.40
2018-10-15T22:32:42.211Z,9.83
2018-10-15T22:35:10.574Z,10.63
2018-10-15T22:37:38.736Z,9.87
2018-10-15T22:40:07.782Z,9.60
2018-10-15T22:42:35.639Z,11.37
2018-10-15T22:45:03.961Z,10.20
2018-10-15T22:47:31.806Z,10.47
2018-10-15T22:49:59.681Z,9.00
2018-10-15T22:52:27.548Z,10.50
2018-10-15T22:54:55.381Z,13.17
2018-10-15T22:57:23.195Z,10.40
2018-10-15T22:59:51.408Z,10.10
2018-10-15T23:02:19.526Z,10.93
2018-10-15T23:04:47.386Z,10.13
2018-10-15T23:07:15.233Z,10.50
2018-10-15T23:09:43.144Z,11.07
2018-10-15T23:12:11.250Z,11.17
2018-10-15T23:14:39.348Z,9.90
2018-10-15T23:17:07.238Z,10.20
2018-10-15T23:19:35.096Z,9.43
2018-10-15T23:22:02.979Z,9.47
2018-10-15T23:24:30.864Z,11.43
2018-10-15T23:26:58.748Z,11.30
2018-10-15T23:29:26.614Z,11.50
2018-10-15T23:31:54.521Z,10.90
2018-10-15T23:34:22.429Z,10.67
2018-10-15T23:36:50.294Z,10.33
2018-10-15T23:39:18.136Z,10.87
2018-10-15T23:41:46.108Z,10.30
2018-10-15T23:44:13.978Z,10.30
2018-10-15T23:46:41.908Z,9.80
2018-10-15T23:49:09.807Z,10.33
2018-10-15T23:51:37.692Z,11.53
2018-10-15T23:54:05.770Z,11.07
2018-10-15T23:56:33.645Z,11.23
2018-10-15T23:59:01.462Z,11.07
